Humidity-temperature Sensor

Selected Measurement Type: Air Temperature

 
Air Temperature [°C]     6 entries per hour
Showing data from 3/3/2022 (00:00:00 Z) to 3/2/2022 (00:01:00 Z)
Previous Next [ Day | 3-Days | 7-Days ]
First Last
Prev [ Day | 3-Days | 7-Days ] Next
First Last

Start Time:     :
End Time:     :     
Time (in GMT) :00 :50 :40 :30 :20 :10
Previous Next [ Day | 3-Days | 7-Days ]
First Last
Prev [ Day | 3-Days | 7-Days ] Next
First Last


123 => good data
MM => data is determined as missing
-- => data not received/configured
Back to Top Back to Top
3/3/2022 00:00 to 23:10 24.80 24.79 24.87 24.76 24.78 24.83
3/2/2022 23:00 to 22:10 24.71 24.92 24.84 24.77 24.80 24.70
3/2/2022 22:00 to 21:10 24.76 24.68 24.71 24.74 24.74 24.69
3/2/2022 21:00 to 20:10 24.72 24.74 24.77 24.77 24.74 24.73
3/2/2022 20:00 to 19:10 24.78 24.85 24.81 24.77 24.76 24.73
3/2/2022 19:00 to 18:10 24.71 24.78 24.70 24.69 24.66 24.61
3/2/2022 18:00 to 17:10 24.53 24.64 24.64 24.69 24.61 24.66
3/2/2022 17:00 to 16:10 24.63 24.72 24.58 24.60 24.63 24.66
3/2/2022 16:00 to 15:10 24.67 24.61 24.61 24.60 24.57 24.58
3/2/2022 15:00 to 14:10 24.43 24.34 24.30 24.25 24.24 24.19
3/2/2022 14:00 to 13:10 24.19 24.29 24.23 24.16 24.21 24.10
3/2/2022 13:00 to 12:10 24.21 24.27 24.28 24.24 24.34 24.19
3/2/2022 12:00 to 11:10 24.27 24.22 24.28 24.36 24.21 24.23
3/2/2022 11:00 to 10:10 24.22 24.28 24.28 24.35 24.27 24.29
3/2/2022 10:00 to 9:10 24.50 24.40 24.45 24.46 24.49 24.51
3/2/2022 09:00 to 8:10 24.51 24.57 24.64 24.58 24.68 24.70
3/2/2022 08:00 to 7:10 24.74 24.71 24.79 24.82 24.83 24.80
3/2/2022 07:00 to 6:10 24.86 24.84 24.74 24.75 24.85 24.83
3/2/2022 06:00 to 5:10 24.82 24.92 24.76 24.81 24.83 24.88
3/2/2022 05:00 to 4:10 24.86 24.89 24.89 24.85 24.94 24.88
3/2/2022 04:00 to 3:10 24.86 24.80 24.78 24.79 24.84 24.91
3/2/2022 03:00 to 2:10 24.89 24.81 24.91 24.98 24.94 25.03
3/2/2022 02:00 to 1:10 25.14 25.13 25.14 25.21 25.21 25.13
3/2/2022 01:00 to 0:10 25.17 25.05 25.05 25.08 25.11 25.08